McDowell, Virginia
Current Conditions -  °F | °C
As of 9:15 AM on Saturday 22 Nov 2014 (Local Time) from KVBW Reporting Station
Clear Clear  
Wind Chill: 31°   Ceiling: Unl
Heat Index: 31°   Visibility: 10mi
Dew Point: 19°   Wind: 0mph
Humidity: 61%   Direction: NA
Pressure: 30.42"   Gusts: NA
Location:  38.34°N, 79.49°W
Report Text: KVBW 221415Z AUTO 00000KT 10SM CLR M01/M07 A3042 RMK AO2 T10081075
Loading
Personal Weather Stations






























Interactive Weather Map New forecast layout! Learn more

10-Day Weather Forecast

Advertisements
Track Severe Weather on mobile